sensor_id;sensor_type;location;lat;lon;timestamp;temperature;humidity
10129;DHT22;5104;50.720;7.044;2022-08-01T00:01:35;22.00;1.00
10129;DHT22;5104;50.720;7.044;2022-08-01T00:04:03;22.00;1.00
10129;DHT22;5104;50.720;7.044;2022-08-01T00:06:30;22.00;1.00
10129;DHT22;5104;50.720;7.044;2022-08-01T00:08:57;22.00;1.00
10129;DHT22;5104;50.720;7.044;2022-08-01T00:11:26;22.00;1.00
10129;DHT22;5104;50.720;7.044;2022-08-01T00:13:52;22.00;1.00
10129;DHT22;5104;50.720;7.044;2022-08-01T00:16:20;22.00;1.00
10129;DHT22;5104;50.720;7.044;2022-08-01T00:18:48;21.90;1.00
10129;DHT22;5104;50.720;7.044;2022-08-01T00:21:15;21.90;1.00
10129;DHT22;5104;50.720;7.044;2022-08-01T00:23:42;21.90;1.00
10129;DHT22;5104;50.720;7.044;2022-08-01T00:26:09;21.90;1.00
10129;DHT22;5104;50.720;7.044;2022-08-01T00:28:37;21.90;1.00
10129;DHT22;5104;50.720;7.044;2022-08-01T00:31:04;21.80;1.00
10129;DHT22;5104;50.720;7.044;2022-08-01T00:33:31;21.80;1.00
10129;DHT22;5104;50.720;7.044;2022-08-01T00:35:58;21.80;1.00
10129;DHT22;5104;50.720;7.044;2022-08-01T00:38:25;21.80;1.00
10129;DHT22;5104;50.720;7.044;2022-08-01T00:40:52;21.80;1.00
10129;DHT22;5104;50.720;7.044;2022-08-01T00:43:19;21.80;1.00
10129;DHT22;5104;50.720;7.044;2022-08-01T00:45:47;21.80;1.00
10129;DHT22;5104;50.720;7.044;2022-08-01T00:48:14;21.80;1.00
10129;DHT22;5104;50.720;7.044;2022-08-01T00:50:41;21.80;1.00
10129;DHT22;5104;50.720;7.044;2022-08-01T00:53:08;21.80;1.00
10129;DHT22;5104;50.720;7.044;2022-08-01T00:55:35;21.80;1.00
10129;DHT22;5104;50.720;7.044;2022-08-01T00:58:02;21.80;1.00
10129;DHT22;5104;50.720;7.044;2022-08-01T01:00:29;21.80;1.00
10129;DHT22;5104;50.720;7.044;2022-08-01T01:02:57;21.70;1.00
10129;DHT22;5104;50.720;7.044;2022-08-01T01:05:24;21.70;1.00
10129;DHT22;5104;50.720;7.044;2022-08-01T01:07:56;21.70;1.00
10129;DHT22;5104;50.720;7.044;2022-08-01T01:10:30;21.60;7.30
10129;DHT22;5104;50.720;7.044;2022-08-01T01:13:02;21.60;28.80
10129;DHT22;5104;50.720;7.044;2022-08-01T01:15:33;21.60;66.00
10129;DHT22;5104;50.720;7.044;2022-08-01T01:18:06;21.60;80.20
10129;DHT22;5104;50.720;7.044;2022-08-01T01:20:37;21.60;83.20
10129;DHT22;5104;50.720;7.044;2022-08-01T01:23:21;21.60;85.20
10129;DHT22;5104;50.720;7.044;2022-08-01T01:26:04;21.60;99.90
10129;DHT22;5104;50.720;7.044;2022-08-01T01:28:40;21.60;99.90
10129;DHT22;5104;50.720;7.044;2022-08-01T01:31:11;21.60;99.90
10129;DHT22;5104;50.720;7.044;2022-08-01T01:33:40;21.60;99.90
10129;DHT22;5104;50.720;7.044;2022-08-01T01:36:09;21.60;99.90
10129;DHT22;5104;50.720;7.044;2022-08-01T01:38:39;21.50;99.90
10129;DHT22;5104;50.720;7.044;2022-08-01T01:41:08;21.50;99.90
10129;DHT22;5104;50.720;7.044;2022-08-01T01:43:37;21.50;1.00
10129;DHT22;5104;50.720;7.044;2022-08-01T01:46:09;21.50;1.00
10129;DHT22;5104;50.720;7.044;2022-08-01T01:48:38;21.50;1.00
10129;DHT22;5104;50.720;7.044;2022-08-01T01:51:07;21.40;1.00
10129;DHT22;5104;50.720;7.044;2022-08-01T01:53:35;21.40;1.00
10129;DHT22;5104;50.720;7.044;2022-08-01T01:56:03;21.40;1.00
10129;DHT22;5104;50.720;7.044;2022-08-01T01:58:32;21.40;1.00
10129;DHT22;5104;50.720;7.044;2022-08-01T02:01:01;21.30;1.00
10129;DHT22;5104;50.720;7.044;2022-08-01T02:03:29;21.30;14.00
10129;DHT22;5104;50.720;7.044;2022-08-01T02:05:58;21.30;61.60
10129;DHT22;5104;50.720;7.044;2022-08-01T02:08:27;21.30;99.90
10129;DHT22;5104;50.720;7.044;2022-08-01T02:10:55;21.30;99.90
10129;DHT22;5104;50.720;7.044;2022-08-01T02:13:41;21.20;99.90
10129;DHT22;5104;50.720;7.044;2022-08-01T02:16:09;21.20;99.90
10129;DHT22;5104;50.720;7.044;2022-08-01T02:18:37;21.20;99.90
10129;DHT22;5104;50.720;7.044;2022-08-01T02:21:09;21.20;99.90
10129;DHT22;5104;50.720;7.044;2022-08-01T02:23:39;21.20;99.90
10129;DHT22;5104;50.720;7.044;2022-08-01T02:26:10;21.20;1.00
10129;DHT22;5104;50.720;7.044;2022-08-01T02:28:43;21.20;1.00
10129;DHT22;5104;50.720;7.044;2022-08-01T02:31:14;21.20;1.00
10129;DHT22;5104;50.720;7.044;2022-08-01T02:33:45;21.20;1.00
10129;DHT22;5104;50.720;7.044;2022-08-01T02:36:16;21.10;1.00
10129;DHT22;5104;50.720;7.044;2022-08-01T02:38:45;21.10;1.00
10129;DHT22;5104;50.720;7.044;2022-08-01T02:41:16;21.10;4.00
10129;DHT22;5104;50.720;7.044;2022-08-01T02:43:49;21.10;71.20
10129;DHT22;5104;50.720;7.044;2022-08-01T02:46:21;21.10;99.90
10129;DHT22;5104;50.720;7.044;2022-08-01T02:48:51;21.00;99.90
10129;DHT22;5104;50.720;7.044;2022-08-01T02:51:21;21.00;99.90
10129;DHT22;5104;50.720;7.044;2022-08-01T02:53:50;21.00;99.90
10129;DHT22;5104;50.720;7.044;2022-08-01T02:56:20;21.00;99.90
10129;DHT22;5104;50.720;7.044;2022-08-01T02:58:48;21.00;99.90
10129;DHT22;5104;50.720;7.044;2022-08-01T03:01:17;21.00;99.90
10129;DHT22;5104;50.720;7.044;2022-08-01T03:03:45;21.00;99.90
10129;DHT22;5104;50.720;7.044;2022-08-01T03:06:13;21.00;1.00
10129;DHT22;5104;50.720;7.044;2022-08-01T03:08:42;21.00;1.00
10129;DHT22;5104;50.720;7.044;2022-08-01T03:11:11;21.00;1.00
10129;DHT22;5104;50.720;7.044;2022-08-01T03:13:40;20.90;1.00
10129;DHT22;5104;50.720;7.044;2022-08-01T03:16:09;21.00;1.00
10129;DHT22;5104;50.720;7.044;2022-08-01T03:18:37;20.90;1.00
10129;DHT22;5104;50.720;7.044;2022-08-01T03:21:06;20.90;1.00
10129;DHT22;5104;50.720;7.044;2022-08-01T03:23:33;20.90;1.00
10129;DHT22;5104;50.720;7.044;2022-08-01T03:26:03;20.90;1.00
10129;DHT22;5104;50.720;7.044;2022-08-01T03:28:31;20.90;1.00
10129;DHT22;5104;50.720;7.044;2022-08-01T03:30:59;20.90;15.90
10129;DHT22;5104;50.720;7.044;2022-08-01T03:33:26;20.90;1.00
10129;DHT22;5104;50.720;7.044;2022-08-01T03:35:54;20.90;99.90
10129;DHT22;5104;50.720;7.044;2022-08-01T03:38:24;20.90;99.90
10129;DHT22;5104;50.720;7.044;2022-08-01T03:40:53;20.90;99.90
10129;DHT22;5104;50.720;7.044;2022-08-01T03:43:30;20.80;99.90
10129;DHT22;5104;50.720;7.044;2022-08-01T03:46:03;20.90;99.90
10129;DHT22;5104;50.720;7.044;2022-08-01T03:48:36;20.80;1.00
10129;DHT22;5104;50.720;7.044;2022-08-01T03:51:04;20.80;99.90
10129;DHT22;5104;50.720;7.044;2022-08-01T03:53:32;20.90;99.90
10129;DHT22;5104;50.720;7.044;2022-08-01T03:56:00;20.80;99.90
10129;DHT22;5104;50.720;7.044;2022-08-01T03:58:30;20.80;1.00
10129;DHT22;5104;50.720;7.044;2022-08-01T04:00:58;20.80;1.00
10129;DHT22;5104;50.720;7.044;2022-08-01T04:03:25;20.80;1.00
10129;DHT22;5104;50.720;7.044;2022-08-01T04:05:54;20.80;1.00
10129;DHT22;5104;50.720;7.044;2022-08-01T04:08:21;20.80;1.00
10129;DHT22;5104;50.720;7.044;2022-08-01T04:10:51;20.80;1.00
10129;DHT22;5104;50.720;7.044;2022-08-01T04:13:17;20.80;1.00
10129;DHT22;5104;50.720;7.044;2022-08-01T04:15:46;20.80;1.00
10129;DHT22;5104;50.720;7.044;2022-08-01T04:18:12;20.80;1.00
10129;DHT22;5104;50.720;7.044;2022-08-01T04:20:39;20.80;1.00
10129;DHT22;5104;50.720;7.044;2022-08-01T04:23:07;20.80;1.00
10129;DHT22;5104;50.720;7.044;2022-08-01T04:25:36;20.80;1.00
10129;DHT22;5104;50.720;7.044;2022-08-01T04:28:06;20.80;1.00
10129;DHT22;5104;50.720;7.044;2022-08-01T04:30:38;20.80;1.00
10129;DHT22;5104;50.720;7.044;2022-08-01T04:33:08;20.80;1.00
10129;DHT22;5104;50.720;7.044;2022-08-01T04:35:38;20.80;1.00
10129;DHT22;5104;50.720;7.044;2022-08-01T04:38:06;20.90;1.00
10129;DHT22;5104;50.720;7.044;2022-08-01T04:40:34;20.90;1.00
10129;DHT22;5104;50.720;7.044;2022-08-01T04:43:02;20.90;1.00
10129;DHT22;5104;50.720;7.044;2022-08-01T04:45:29;20.90;1.00
10129;DHT22;5104;50.720;7.044;2022-08-01T04:47:57;20.90;1.00
10129;DHT22;5104;50.720;7.044;2022-08-01T04:50:26;21.00;1.00
10129;DHT22;5104;50.720;7.044;2022-08-01T04:52:53;21.00;1.00
10129;DHT22;5104;50.720;7.044;2022-08-01T04:55:21;21.00;99.90
10129;DHT22;5104;50.720;7.044;2022-08-01T04:57:48;21.10;99.90
10129;DHT22;5104;50.720;7.044;2022-08-01T05:00:15;21.10;99.90
10129;DHT22;5104;50.720;7.044;2022-08-01T05:02:43;21.10;99.90
10129;DHT22;5104;50.720;7.044;2022-08-01T05:05:10;21.10;99.90
10129;DHT22;5104;50.720;7.044;2022-08-01T05:07:38;21.10;99.90
10129;DHT22;5104;50.720;7.044;2022-08-01T05:10:06;21.20;1.00
10129;DHT22;5104;50.720;7.044;2022-08-01T05:12:33;21.30;1.00
10129;DHT22;5104;50.720;7.044;2022-08-01T05:15:01;21.40;1.00
10129;DHT22;5104;50.720;7.044;2022-08-01T05:17:28;21.40;1.00
10129;DHT22;5104;50.720;7.044;2022-08-01T05:19:55;21.40;1.00
10129;DHT22;5104;50.720;7.044;2022-08-01T05:22:21;21.50;99.90
10129;DHT22;5104;50.720;7.044;2022-08-01T05:24:52;21.60;39.70
10129;DHT22;5104;50.720;7.044;2022-08-01T05:27:19;21.60;1.00
10129;DHT22;5104;50.720;7.044;2022-08-01T05:29:46;21.70;1.00
10129;DHT22;5104;50.720;7.044;2022-08-01T05:32:12;21.60;1.00
10129;DHT22;5104;50.720;7.044;2022-08-01T05:34:39;21.70;1.00
10129;DHT22;5104;50.720;7.044;2022-08-01T05:37:06;21.60;1.00
10129;DHT22;5104;50.720;7.044;2022-08-01T05:39:33;21.70;1.00
10129;DHT22;5104;50.720;7.044;2022-08-01T05:42:02;21.70;1.00
10129;DHT22;5104;50.720;7.044;2022-08-01T05:44:29;21.60;1.00
10129;DHT22;5104;50.720;7.044;2022-08-01T05:46:56;21.50;99.90
10129;DHT22;5104;50.720;7.044;2022-08-01T05:49:23;21.50;99.90
10129;DHT22;5104;50.720;7.044;2022-08-01T05:51:50;21.60;99.90
10129;DHT22;5104;50.720;7.044;2022-08-01T05:54:18;21.60;9.50
10129;DHT22;5104;50.720;7.044;2022-08-01T05:56:44;21.60;94.70
10129;DHT22;5104;50.720;7.044;2022-08-01T05:59:13;21.70;46.00
10129;DHT22;5104;50.720;7.044;2022-08-01T06:01:39;21.80;1.00
10129;DHT22;5104;50.720;7.044;2022-08-01T06:04:06;21.70;1.00
10129;DHT22;5104;50.720;7.044;2022-08-01T06:06:33;21.70;1.00
10129;DHT22;5104;50.720;7.044;2022-08-01T06:09:00;21.60;1.00
10129;DHT22;5104;50.720;7.044;2022-08-01T06:11:27;21.60;99.90
10129;DHT22;5104;50.720;7.044;2022-08-01T06:13:54;21.50;99.90
10129;DHT22;5104;50.720;7.044;2022-08-01T06:16:22;21.60;99.90
10129;DHT22;5104;50.720;7.044;2022-08-01T06:18:49;21.60;99.90
10129;DHT22;5104;50.720;7.044;2022-08-01T06:21:16;21.70;99.90
10129;DHT22;5104;50.720;7.044;2022-08-01T06:23:43;21.80;1.00
10129;DHT22;5104;50.720;7.044;2022-08-01T06:26:10;21.90;1.00
10129;DHT22;5104;50.720;7.044;2022-08-01T06:28:37;22.10;1.00
10129;DHT22;5104;50.720;7.044;2022-08-01T06:31:04;22.20;99.90
10129;DHT22;5104;50.720;7.044;2022-08-01T06:33:32;22.30;68.90
10129;DHT22;5104;50.720;7.044;2022-08-01T06:36:00;22.40;1.00
10129;DHT22;5104;50.720;7.044;2022-08-01T06:38:27;22.60;1.00
10129;DHT22;5104;50.720;7.044;2022-08-01T06:40:53;22.70;1.00
10129;DHT22;5104;50.720;7.044;2022-08-01T06:43:20;22.70;1.00
10129;DHT22;5104;50.720;7.044;2022-08-01T06:45:47;22.50;1.00
10129;DHT22;5104;50.720;7.044;2022-08-01T06:48:15;22.50;1.00
10129;DHT22;5104;50.720;7.044;2022-08-01T06:50:43;22.50;1.00
10129;DHT22;5104;50.720;7.044;2022-08-01T06:53:10;22.40;1.00
10129;DHT22;5104;50.720;7.044;2022-08-01T06:55:37;22.50;1.00
10129;DHT22;5104;50.720;7.044;2022-08-01T06:58:04;22.70;1.00
10129;DHT22;5104;50.720;7.044;2022-08-01T07:00:31;22.80;99.90
10129;DHT22;5104;50.720;7.044;2022-08-01T07:02:58;23.10;99.90
10129;DHT22;5104;50.720;7.044;2022-08-01T07:05:25;23.30;1.00
10129;DHT22;5104;50.720;7.044;2022-08-01T07:07:54;23.40;1.00
10129;DHT22;5104;50.720;7.044;2022-08-01T07:10:21;23.30;1.00
10129;DHT22;5104;50.720;7.044;2022-08-01T07:12:48;23.30;1.00
10129;DHT22;5104;50.720;7.044;2022-08-01T07:15:15;23.10;1.00
10129;DHT22;5104;50.720;7.044;2022-08-01T07:17:42;23.30;1.00
10129;DHT22;5104;50.720;7.044;2022-08-01T07:20:11;23.30;1.00
10129;DHT22;5104;50.720;7.044;2022-08-01T07:22:39;23.30;1.00
10129;DHT22;5104;50.720;7.044;2022-08-01T07:25:08;23.20;1.00
10129;DHT22;5104;50.720;7.044;2022-08-01T07:27:36;23.10;1.00
10129;DHT22;5104;50.720;7.044;2022-08-01T07:30:04;23.10;1.00
10129;DHT22;5104;50.720;7.044;2022-08-01T07:32:31;23.30;1.00
10129;DHT22;5104;50.720;7.044;2022-08-01T07:34:59;23.50;1.00
10129;DHT22;5104;50.720;7.044;2022-08-01T07:37:26;23.70;1.00
10129;DHT22;5104;50.720;7.044;2022-08-01T07:39:53;24.10;99.90
10129;DHT22;5104;50.720;7.044;2022-08-01T07:42:21;24.10;99.90
10129;DHT22;5104;50.720;7.044;2022-08-01T07:44:48;24.40;99.90
10129;DHT22;5104;50.720;7.044;2022-08-01T07:47:15;24.40;99.90
10129;DHT22;5104;50.720;7.044;2022-08-01T07:49:41;24.30;99.90
10129;DHT22;5104;50.720;7.044;2022-08-01T07:52:08;24.30;97.30
10129;DHT22;5104;50.720;7.044;2022-08-01T07:54:35;24.10;99.90
10129;DHT22;5104;50.720;7.044;2022-08-01T07:57:03;24.20;96.00
10129;DHT22;5104;50.720;7.044;2022-08-01T07:59:33;24.20;99.90
10129;DHT22;5104;50.720;7.044;2022-08-01T08:02:00;24.10;48.60
10129;DHT22;5104;50.720;7.044;2022-08-01T08:04:27;24.10;81.70
10129;DHT22;5104;50.720;7.044;2022-08-01T08:06:54;24.00;87.30
10129;DHT22;5104;50.720;7.044;2022-08-01T08:09:21;24.00;67.70
10129;DHT22;5104;50.720;7.044;2022-08-01T08:11:48;24.10;27.00
10129;DHT22;5104;50.720;7.044;2022-08-01T08:14:16;24.10;62.60
10129;DHT22;5104;50.720;7.044;2022-08-01T08:16:45;24.10;42.80
10129;DHT22;5104;50.720;7.044;2022-08-01T08:19:12;24.20;1.00
10129;DHT22;5104;50.720;7.044;2022-08-01T08:21:39;24.50;1.00
10129;DHT22;5104;50.720;7.044;2022-08-01T08:24:07;24.80;1.00
10129;DHT22;5104;50.720;7.044;2022-08-01T08:26:47;24.80;1.00
10129;DHT22;5104;50.720;7.044;2022-08-01T08:29:14;24.90;1.00
10129;DHT22;5104;50.720;7.044;2022-08-01T08:31:41;24.80;1.00
10129;DHT22;5104;50.720;7.044;2022-08-01T08:34:10;24.70;1.00
10129;DHT22;5104;50.720;7.044;2022-08-01T08:36:37;24.50;1.00
10129;DHT22;5104;50.720;7.044;2022-08-01T08:39:04;24.60;1.00
10129;DHT22;5104;50.720;7.044;2022-08-01T08:41:31;24.60;1.00
10129;DHT22;5104;50.720;7.044;2022-08-01T08:44:00;24.40;1.00
10129;DHT22;5104;50.720;7.044;2022-08-01T08:46:27;24.70;1.00
10129;DHT22;5104;50.720;7.044;2022-08-01T08:48:55;24.90;1.00
10129;DHT22;5104;50.720;7.044;2022-08-01T08:51:26;25.10;1.00
10129;DHT22;5104;50.720;7.044;2022-08-01T08:53:55;25.20;1.00
10129;DHT22;5104;50.720;7.044;2022-08-01T08:56:24;25.30;1.00
10129;DHT22;5104;50.720;7.044;2022-08-01T08:58:52;25.50;1.00
10129;DHT22;5104;50.720;7.044;2022-08-01T09:01:19;25.70;1.00
10129;DHT22;5104;50.720;7.044;2022-08-01T09:03:46;25.50;1.00
10129;DHT22;5104;50.720;7.044;2022-08-01T09:06:13;25.70;1.00
10129;DHT22;5104;50.720;7.044;2022-08-01T09:08:42;25.80;1.00
10129;DHT22;5104;50.720;7.044;2022-08-01T09:11:09;26.00;1.00
10129;DHT22;5104;50.720;7.044;2022-08-01T09:13:35;26.00;1.00
10129;DHT22;5104;50.720;7.044;2022-08-01T09:16:05;25.70;1.00
10129;DHT22;5104;50.720;7.044;2022-08-01T09:18:33;25.70;1.00
10129;DHT22;5104;50.720;7.044;2022-08-01T09:21:15;25.70;1.00
10129;DHT22;5104;50.720;7.044;2022-08-01T09:23:45;25.90;1.00
10129;DHT22;5104;50.720;7.044;2022-08-01T09:26:13;25.90;1.00
10129;DHT22;5104;50.720;7.044;2022-08-01T09:28:41;26.10;99.90
10129;DHT22;5104;50.720;7.044;2022-08-01T09:31:12;26.30;99.90
10129;DHT22;5104;50.720;7.044;2022-08-01T09:33:50;26.20;99.90
10129;DHT22;5104;50.720;7.044;2022-08-01T09:36:18;26.10;99.90
10129;DHT22;5104;50.720;7.044;2022-08-01T09:38:46;26.00;99.90
10129;DHT22;5104;50.720;7.044;2022-08-01T09:41:13;26.30;99.90
10129;DHT22;5104;50.720;7.044;2022-08-01T09:43:48;26.50;99.90
10129;DHT22;5104;50.720;7.044;2022-08-01T09:46:16;26.50;99.90
10129;DHT22;5104;50.720;7.044;2022-08-01T09:48:56;26.40;99.90
10129;DHT22;5104;50.720;7.044;2022-08-01T09:51:32;26.50;99.90
10129;DHT22;5104;50.720;7.044;2022-08-01T09:54:02;26.00;99.90
10129;DHT22;5104;50.720;7.044;2022-08-01T09:56:37;26.50;99.90
10129;DHT22;5104;50.720;7.044;2022-08-01T09:59:04;26.50;99.90
10129;DHT22;5104;50.720;7.044;2022-08-01T10:01:43;27.00;99.90
10129;DHT22;5104;50.720;7.044;2022-08-01T10:04:11;27.20;99.90
10129;DHT22;5104;50.720;7.044;2022-08-01T10:06:39;27.20;99.90
10129;DHT22;5104;50.720;7.044;2022-08-01T10:09:10;27.20;99.90
10129;DHT22;5104;50.720;7.044;2022-08-01T10:11:38;27.10;99.90
10129;DHT22;5104;50.720;7.044;2022-08-01T10:14:06;27.10;99.90
10129;DHT22;5104;50.720;7.044;2022-08-01T10:16:34;27.00;99.90
10129;DHT22;5104;50.720;7.044;2022-08-01T10:19:03;27.00;99.90
10129;DHT22;5104;50.720;7.044;2022-08-01T10:21:32;27.20;99.90
10129;DHT22;5104;50.720;7.044;2022-08-01T10:24:02;27.60;99.90
10129;DHT22;5104;50.720;7.044;2022-08-01T10:26:33;27.70;99.90
10129;DHT22;5104;50.720;7.044;2022-08-01T10:29:00;27.60;99.90
10129;DHT22;5104;50.720;7.044;2022-08-01T10:31:28;27.70;99.90
10129;DHT22;5104;50.720;7.044;2022-08-01T10:33:58;27.70;99.90
10129;DHT22;5104;50.720;7.044;2022-08-01T10:36:26;27.60;99.90
10129;DHT22;5104;50.720;7.044;2022-08-01T10:38:54;27.10;99.90
10129;DHT22;5104;50.720;7.044;2022-08-01T10:41:22;26.90;99.90
10129;DHT22;5104;50.720;7.044;2022-08-01T10:43:52;27.00;99.90
10129;DHT22;5104;50.720;7.044;2022-08-01T10:46:19;27.00;99.90
10129;DHT22;5104;50.720;7.044;2022-08-01T10:48:54;26.60;99.90
10129;DHT22;5104;50.720;7.044;2022-08-01T10:51:22;26.50;99.90
10129;DHT22;5104;50.720;7.044;2022-08-01T10:53:51;26.50;99.90
10129;DHT22;5104;50.720;7.044;2022-08-01T10:56:18;26.50;99.90
10129;DHT22;5104;50.720;7.044;2022-08-01T10:58:47;26.20;99.90
10129;DHT22;5104;50.720;7.044;2022-08-01T11:01:23;26.10;99.90
10129;DHT22;5104;50.720;7.044;2022-08-01T11:04:11;26.50;99.90
10129;DHT22;5104;50.720;7.044;2022-08-01T11:06:42;27.00;99.90
10129;DHT22;5104;50.720;7.044;2022-08-01T11:09:28;27.10;99.90
10129;DHT22;5104;50.720;7.044;2022-08-01T11:12:03;27.40;99.90
10129;DHT22;5104;50.720;7.044;2022-08-01T11:14:33;27.70;99.90
10129;DHT22;5104;50.720;7.044;2022-08-01T11:20:06;28.40;39.70
10129;DHT22;5104;50.720;7.044;2022-08-01T11:26:10;28.00;15.20
10129;DHT22;5104;50.720;7.044;2022-08-01T11:28:38;27.10;64.50
10129;DHT22;5104;50.720;7.044;2022-08-01T11:31:29;27.20;83.00
10129;DHT22;5104;50.720;7.044;2022-08-01T11:33:56;27.20;90.10
10129;DHT22;5104;50.720;7.044;2022-08-01T11:36:25;27.70;75.80
10129;DHT22;5104;50.720;7.044;2022-08-01T11:39:17;28.40;40.70
10129;DHT22;5104;50.720;7.044;2022-08-01T11:41:46;28.60;2.00
10129;DHT22;5104;50.720;7.044;2022-08-01T11:44:19;28.60;1.00
10129;DHT22;5104;50.720;7.044;2022-08-01T11:47:03;28.40;6.70
10129;DHT22;5104;50.720;7.044;2022-08-01T11:52:26;27.10;87.50
10129;DHT22;5104;50.720;7.044;2022-08-01T11:54:55;26.70;99.90
10129;DHT22;5104;50.720;7.044;2022-08-01T11:57:24;26.30;99.90
10129;DHT22;5104;50.720;7.044;2022-08-01T11:59:53;26.00;99.90
10129;DHT22;5104;50.720;7.044;2022-08-01T12:02:24;25.90;99.90
10129;DHT22;5104;50.720;7.044;2022-08-01T12:04:54;26.00;99.90
10129;DHT22;5104;50.720;7.044;2022-08-01T12:07:22;25.90;99.90
10129;DHT22;5104;50.720;7.044;2022-08-01T12:10:02;26.00;99.90
10129;DHT22;5104;50.720;7.044;2022-08-01T12:12:30;26.30;99.90
10129;DHT22;5104;50.720;7.044;2022-08-01T12:14:58;26.60;99.90
10129;DHT22;5104;50.720;7.044;2022-08-01T12:17:33;27.00;99.90
10129;DHT22;5104;50.720;7.044;2022-08-01T12:20:01;27.50;98.00
10129;DHT22;5104;50.720;7.044;2022-08-01T12:22:28;27.90;76.70
10129;DHT22;5104;50.720;7.044;2022-08-01T12:25:05;28.30;42.00
10129;DHT22;5104;50.720;7.044;2022-08-01T12:27:33;28.30;36.80
10129;DHT22;5104;50.720;7.044;2022-08-01T12:30:00;28.20;39.80
10129;DHT22;5104;50.720;7.044;2022-08-01T12:32:29;28.00;50.00
10129;DHT22;5104;50.720;7.044;2022-08-01T12:35:00;28.10;52.20
10129;DHT22;5104;50.720;7.044;2022-08-01T12:37:28;28.20;39.30
10129;DHT22;5104;50.720;7.044;2022-08-01T12:39:57;28.50;10.30
10129;DHT22;5104;50.720;7.044;2022-08-01T12:42:24;28.70;1.00
10129;DHT22;5104;50.720;7.044;2022-08-01T12:44:52;28.70;1.00
10129;DHT22;5104;50.720;7.044;2022-08-01T12:47:20;29.00;1.00
10129;DHT22;5104;50.720;7.044;2022-08-01T12:49:48;29.30;1.00
10129;DHT22;5104;50.720;7.044;2022-08-01T12:52:15;29.10;1.00
10129;DHT22;5104;50.720;7.044;2022-08-01T12:55:10;29.10;1.00
10129;DHT22;5104;50.720;7.044;2022-08-01T12:57:39;29.00;1.00
10129;DHT22;5104;50.720;7.044;2022-08-01T13:00:15;29.00;1.00
10129;DHT22;5104;50.720;7.044;2022-08-01T13:02:43;29.00;1.00
10129;DHT22;5104;50.720;7.044;2022-08-01T13:05:11;28.80;1.00
10129;DHT22;5104;50.720;7.044;2022-08-01T13:07:44;28.90;1.00
10129;DHT22;5104;50.720;7.044;2022-08-01T13:10:13;29.30;1.00
10129;DHT22;5104;50.720;7.044;2022-08-01T13:12:51;29.40;1.00
10129;DHT22;5104;50.720;7.044;2022-08-01T13:15:26;29.20;1.00
10129;DHT22;5104;50.720;7.044;2022-08-01T13:17:54;29.10;1.00
10129;DHT22;5104;50.720;7.044;2022-08-01T13:20:26;29.00;1.00
10129;DHT22;5104;50.720;7.044;2022-08-01T13:22:53;28.70;1.00
10129;DHT22;5104;50.720;7.044;2022-08-01T13:25:21;28.60;1.00
10129;DHT22;5104;50.720;7.044;2022-08-01T13:27:48;28.80;1.00
10129;DHT22;5104;50.720;7.044;2022-08-01T13:30:16;29.10;1.00
10129;DHT22;5104;50.720;7.044;2022-08-01T13:32:44;29.30;1.00
10129;DHT22;5104;50.720;7.044;2022-08-01T13:35:26;29.50;1.00
10129;DHT22;5104;50.720;7.044;2022-08-01T13:37:53;29.50;1.00
10129;DHT22;5104;50.720;7.044;2022-08-01T13:40:27;29.20;1.00
10129;DHT22;5104;50.720;7.044;2022-08-01T13:42:54;28.80;1.00
10129;DHT22;5104;50.720;7.044;2022-08-01T13:45:22;28.10;1.00
10129;DHT22;5104;50.720;7.044;2022-08-01T13:47:49;27.80;1.00
10129;DHT22;5104;50.720;7.044;2022-08-01T13:50:16;27.90;1.00
10129;DHT22;5104;50.720;7.044;2022-08-01T13:52:43;28.10;1.00
10129;DHT22;5104;50.720;7.044;2022-08-01T13:55:10;28.10;1.00
10129;DHT22;5104;50.720;7.044;2022-08-01T13:57:38;28.00;1.00
10129;DHT22;5104;50.720;7.044;2022-08-01T14:00:07;27.60;1.00
10129;DHT22;5104;50.720;7.044;2022-08-01T14:02:34;27.40;1.00
10129;DHT22;5104;50.720;7.044;2022-08-01T14:05:04;27.20;1.00
10129;DHT22;5104;50.720;7.044;2022-08-01T14:07:31;27.60;1.00
10129;DHT22;5104;50.720;7.044;2022-08-01T14:09:58;28.00;1.00
10129;DHT22;5104;50.720;7.044;2022-08-01T14:12:25;28.00;1.00
10129;DHT22;5104;50.720;7.044;2022-08-01T14:14:53;28.00;1.00
10129;DHT22;5104;50.720;7.044;2022-08-01T14:17:20;27.90;1.00
10129;DHT22;5104;50.720;7.044;2022-08-01T14:19:47;27.80;1.00
10129;DHT22;5104;50.720;7.044;2022-08-01T14:22:14;27.70;1.00
10129;DHT22;5104;50.720;7.044;2022-08-01T14:24:40;27.70;1.00
10129;DHT22;5104;50.720;7.044;2022-08-01T14:27:07;27.30;1.00
10129;DHT22;5104;50.720;7.044;2022-08-01T14:29:35;27.00;1.00
10129;DHT22;5104;50.720;7.044;2022-08-01T14:32:04;26.90;1.00
10129;DHT22;5104;50.720;7.044;2022-08-01T14:34:31;26.90;1.00
10129;DHT22;5104;50.720;7.044;2022-08-01T14:36:58;26.70;1.00
10129;DHT22;5104;50.720;7.044;2022-08-01T14:39:25;26.80;1.00
10129;DHT22;5104;50.720;7.044;2022-08-01T14:41:52;27.00;1.00
10129;DHT22;5104;50.720;7.044;2022-08-01T14:44:19;27.00;1.00
10129;DHT22;5104;50.720;7.044;2022-08-01T14:46:46;27.20;1.00
10129;DHT22;5104;50.720;7.044;2022-08-01T14:49:15;27.30;1.00
10129;DHT22;5104;50.720;7.044;2022-08-01T14:51:42;27.50;1.00
10129;DHT22;5104;50.720;7.044;2022-08-01T14:54:08;27.70;1.00
10129;DHT22;5104;50.720;7.044;2022-08-01T14:56:35;28.00;1.00
10129;DHT22;5104;50.720;7.044;2022-08-01T14:59:02;28.30;1.00
10129;DHT22;5104;50.720;7.044;2022-08-01T15:01:29;28.80;1.00
10129;DHT22;5104;50.720;7.044;2022-08-01T15:03:57;29.10;1.00
10129;DHT22;5104;50.720;7.044;2022-08-01T15:06:25;29.10;1.00
10129;DHT22;5104;50.720;7.044;2022-08-01T15:08:52;29.30;1.00
10129;DHT22;5104;50.720;7.044;2022-08-01T15:11:19;29.50;1.00
10129;DHT22;5104;50.720;7.044;2022-08-01T15:13:46;29.70;1.00
10129;DHT22;5104;50.720;7.044;2022-08-01T15:16:33;29.50;1.00
10129;DHT22;5104;50.720;7.044;2022-08-01T15:19:03;29.40;1.00
10129;DHT22;5104;50.720;7.044;2022-08-01T15:21:31;28.90;1.00
10129;DHT22;5104;50.720;7.044;2022-08-01T15:23:58;28.80;1.00
10129;DHT22;5104;50.720;7.044;2022-08-01T15:26:25;28.60;1.00
10129;DHT22;5104;50.720;7.044;2022-08-01T15:28:53;28.50;1.00
10129;DHT22;5104;50.720;7.044;2022-08-01T15:31:19;28.40;1.00
10129;DHT22;5104;50.720;7.044;2022-08-01T15:33:46;28.00;1.00
10129;DHT22;5104;50.720;7.044;2022-08-01T15:36:13;27.90;1.00
10129;DHT22;5104;50.720;7.044;2022-08-01T15:38:41;27.60;1.00
10129;DHT22;5104;50.720;7.044;2022-08-01T15:41:08;27.40;1.00
10129;DHT22;5104;50.720;7.044;2022-08-01T15:43:35;27.10;1.00
10129;DHT22;5104;50.720;7.044;2022-08-01T15:46:04;27.00;1.00
10129;DHT22;5104;50.720;7.044;2022-08-01T15:48:31;26.90;1.00
10129;DHT22;5104;50.720;7.044;2022-08-01T15:50:58;26.90;1.00
10129;DHT22;5104;50.720;7.044;2022-08-01T15:53:24;26.90;1.00
10129;DHT22;5104;50.720;7.044;2022-08-01T15:55:53;26.80;1.00
10129;DHT22;5104;50.720;7.044;2022-08-01T15:58:20;26.80;1.00
10129;DHT22;5104;50.720;7.044;2022-08-01T16:00:46;26.80;1.00
10129;DHT22;5104;50.720;7.044;2022-08-01T16:03:13;26.90;1.00
10129;DHT22;5104;50.720;7.044;2022-08-01T16:05:40;27.10;1.00
10129;DHT22;5104;50.720;7.044;2022-08-01T16:08:08;27.10;1.00
10129;DHT22;5104;50.720;7.044;2022-08-01T16:10:35;27.20;1.00
10129;DHT22;5104;50.720;7.044;2022-08-01T16:13:04;27.50;1.00
10129;DHT22;5104;50.720;7.044;2022-08-01T16:15:31;27.60;1.00